Time;durP1;ratioP1;P1;durP2;ratioP2;P2;SDS_P1;SDS_P2;PMS_P1;PMS_P2;Temp;Humidity;BMP_temperature;BMP_pressure;BME280_temperature;BME280_humidity;BME280_pressure;Samples;Min_cycle;Max_cycle;Signal;HPM_P1;HPM_P2
2023/04/23 00:03:47;;;;;;;12.95;10.25;;;13.20;99.90;;;;;;12559306;28;20097;-80
2023/04/23 00:09:51;;;;;;;13.20;10.90;;;13.20;99.90;;;;;;12591209;28;20037;-80
2023/04/23 00:15:53;;;;;;;17.88;13.32;;;13.00;99.90;;;;;;12545997;28;20048;-81
2023/04/23 00:21:55;;;;;;;20.83;15.35;;;13.00;99.90;;;;;;12575205;28;20072;-80
2023/04/23 00:27:57;;;;;;;23.65;16.83;;;12.80;99.90;;;;;;12555048;28;20052;-81
2023/04/23 00:33:59;;;;;;;23.52;17.23;;;12.70;99.90;;;;;;12539057;28;20106;-81
2023/04/23 00:40:01;;;;;;;24.40;19.20;;;12.80;99.90;;;;;;12530020;28;20052;-80
2023/04/23 00:46:03;;;;;;;25.83;18.63;;;12.60;99.90;;;;;;12465440;28;20182;-81
2023/04/23 00:52:06;;;;;;;23.63;17.52;;;12.50;99.90;;;;;;12480904;28;20105;-80
2023/04/23 00:58:08;;;;;;;26.10;19.38;;;12.50;99.90;;;;;;12485895;28;20096;-80
2023/04/23 01:04:13;;;;;;;27.63;20.55;;;12.40;99.90;;;;;;12482934;28;20131;-80
2023/04/23 01:10:16;;;;;;;28.95;21.08;;;12.30;99.90;;;;;;12461284;28;20057;-80
2023/04/23 01:16:18;;;;;;;29.50;19.88;;;12.40;99.90;;;;;;12467264;28;20088;-80
2023/04/23 01:22:20;;;;;;;28.88;20.88;;;12.20;99.90;;;;;;12478161;28;20045;-81
2023/04/23 01:28:22;;;;;;;31.10;21.30;;;12.20;99.90;;;;;;12441295;28;20730;-80
2023/04/23 01:34:24;;;;;;;31.02;21.88;;;12.10;99.90;;;;;;12460161;28;20050;-80
2023/04/23 01:40:26;;;;;;;32.53;22.65;;;12.00;99.90;;;;;;12441109;28;20046;-80
2023/04/23 01:46:28;;;;;;;33.83;23.38;;;11.90;99.90;;;;;;12450243;28;20045;-80
2023/04/23 01:52:30;;;;;;;30.95;22.85;;;12.00;99.90;;;;;;12467717;28;20053;-81
2023/04/23 01:58:32;;;;;;;32.75;23.65;;;11.90;99.90;;;;;;12445346;28;20057;-80
2023/04/23 02:04:34;;;;;;;32.78;23.70;;;12.00;99.90;;;;;;12482773;28;20037;-80
2023/04/23 02:10:36;;;;;;;33.58;23.88;;;12.10;99.90;;;;;;12466644;28;20049;-80
2023/04/23 02:16:38;;;;;;;32.83;23.88;;;12.20;99.90;;;;;;12490614;28;20057;-80
2023/04/23 02:22:41;;;;;;;32.85;23.00;;;12.20;99.90;;;;;;12483101;28;20061;-80
2023/04/23 02:28:42;;;;;;;32.50;22.95;;;12.10;99.90;;;;;;12478167;28;20057;-80
2023/04/23 02:34:45;;;;;;;36.38;24.42;;;12.20;99.90;;;;;;12483792;28;20048;-80
2023/04/23 02:40:46;;;;;;;37.72;25.23;;;12.00;99.90;;;;;;12503494;28;20057;-80
2023/04/23 02:46:48;;;;;;;37.88;24.92;;;11.80;99.90;;;;;;12492488;28;20060;-80
2023/04/23 02:52:50;;;;;;;39.60;26.00;;;11.70;99.90;;;;;;12493507;28;20080;-80
2023/04/23 02:58:52;;;;;;;37.08;25.17;;;11.60;99.90;;;;;;12491322;28;20149;-80
2023/04/23 03:04:54;;;;;;;38.97;25.75;;;11.50;99.90;;;;;;12492129;28;20053;-80
2023/04/23 03:10:56;;;;;;;36.05;25.33;;;11.60;99.90;;;;;;12494835;28;20046;-80
2023/04/23 03:16:58;;;;;;;39.42;26.65;;;11.50;99.90;;;;;;12517990;28;20415;-81
2023/04/23 03:23:00;;;;;;;41.53;27.33;;;11.50;99.90;;;;;;12510898;28;20073;-81
2023/04/23 03:29:02;;;;;;;38.65;26.17;;;11.40;99.90;;;;;;12513496;28;20053;-81
2023/04/23 03:35:05;;;;;;;40.67;26.95;;;11.20;99.90;;;;;;12532877;28;20162;-81
2023/04/23 03:41:07;;;;;;;37.30;25.98;;;11.20;99.90;;;;;;12540270;28;20122;-81
2023/04/23 03:47:09;;;;;;;40.38;27.38;;;11.20;99.90;;;;;;12523382;28;20040;-81
2023/04/23 03:53:10;;;;;;;41.00;26.88;;;11.30;99.90;;;;;;12515807;28;20041;-81
2023/04/23 03:59:12;;;;;;;40.10;26.77;;;11.20;99.90;;;;;;12515401;28;20365;-81
2023/04/23 04:05:14;;;;;;;40.22;27.10;;;11.40;99.90;;;;;;12513447;28;20076;-81
2023/04/23 04:11:16;;;;;;;41.05;27.45;;;11.40;99.90;;;;;;12515508;28;20046;-81
2023/04/23 04:17:18;;;;;;;41.72;28.17;;;11.20;99.90;;;;;;12531117;28;20169;-81
2023/04/23 04:23:21;;;;;;;43.42;29.58;;;11.10;99.90;;;;;;12514276;28;20071;-82
2023/04/23 04:29:22;;;;;;;42.92;28.85;;;10.90;99.90;;;;;;12500820;28;20056;-82
2023/04/23 04:35:24;;;;;;;41.33;28.05;;;11.10;99.90;;;;;;12515694;28;20394;-82
2023/04/23 04:41:26;;;;;;;43.83;29.80;;;11.20;99.90;;;;;;12497964;28;20064;-82
2023/04/23 04:47:28;;;;;;;47.38;29.58;;;11.10;99.90;;;;;;12530350;28;20424;-82
2023/04/23 04:53:30;;;;;;;39.80;26.73;;;10.90;99.90;;;;;;12493816;28;20493;-81
2023/04/23 04:59:32;;;;;;;47.65;29.33;;;10.90;99.90;;;;;;12528485;28;20044;-82
2023/04/23 05:05:34;;;;;;;46.42;28.85;;;10.90;99.90;;;;;;12498753;28;20053;-82
2023/04/23 05:11:36;;;;;;;44.63;28.30;;;11.10;99.90;;;;;;12506255;28;20049;-82
2023/04/23 05:17:42;;;;;;;43.08;28.05;;;11.20;99.90;;;;;;12503490;28;20061;-81
2023/04/23 05:23:44;;;;;;;45.28;28.05;;;11.20;99.90;;;;;;12507592;28;20053;-82
2023/04/23 05:29:46;;;;;;;39.05;25.08;;;11.40;99.90;;;;;;12508833;28;20102;-82
2023/04/23 05:35:47;;;;;;;45.90;29.65;;;11.40;99.90;;;;;;12497756;28;20288;-81
2023/04/23 05:41:49;;;;;;;44.88;28.20;;;11.10;99.90;;;;;;12476225;28;20068;-81
2023/04/23 05:47:51;;;;;;;42.60;27.40;;;11.20;99.90;;;;;;12509948;28;20103;-81
2023/04/23 05:53:53;;;;;;;46.20;28.05;;;11.50;99.90;;;;;;12529445;28;20134;-80
2023/04/23 05:59:54;;;;;;;45.55;28.45;;;11.50;99.90;;;;;;12503707;28;20049;-80
2023/04/23 06:05:56;;;;;;;44.53;28.48;;;11.50;99.90;;;;;;12476607;28;20044;-81
2023/04/23 06:11:58;;;;;;;46.83;29.02;;;11.60;99.90;;;;;;12518082;28;20041;-80
2023/04/23 06:18:00;;;;;;;49.00;30.35;;;11.40;99.90;;;;;;12490417;28;20501;-80
2023/04/23 06:24:02;;;;;;;48.55;30.20;;;11.80;99.90;;;;;;12496190;28;20195;-80
2023/04/23 06:30:05;;;;;;;53.05;30.85;;;11.90;99.90;;;;;;12487119;28;20041;-80
2023/04/23 06:36:09;;;;;;;48.50;29.10;;;11.80;99.90;;;;;;12509077;28;20140;-80
2023/04/23 06:42:11;;;;;;;47.08;29.92;;;11.70;99.90;;;;;;12500754;28;20246;-80
2023/04/23 06:48:13;;;;;;;46.42;28.05;;;11.80;99.90;;;;;;12536648;28;20136;-80
2023/04/23 06:54:15;;;;;;;41.17;26.38;;;12.30;99.90;;;;;;12521308;28;20048;-81
2023/04/23 07:00:18;;;;;;;41.00;26.73;;;13.20;99.90;;;;;;12524055;28;20144;-80
2023/04/23 07:06:19;;;;;;;41.28;25.60;;;12.90;99.90;;;;;;12509008;28;20505;-80
2023/04/23 07:12:21;;;;;;;30.15;19.90;;;12.90;99.90;;;;;;12510969;28;20523;-80
2023/04/23 07:18:24;;;;;;;30.13;19.23;;;13.70;99.90;;;;;;12499795;28;20056;-81
2023/04/23 07:24:26;;;;;;;28.67;18.92;;;13.90;99.90;;;;;;12503286;28;20041;-80
2023/04/23 07:30:27;;;;;;;27.60;19.23;;;13.20;99.90;;;;;;12538158;28;20094;-81
2023/04/23 07:36:30;;;;;;;32.15;19.42;;;13.20;99.90;;;;;;12513188;28;20057;-80
2023/04/23 07:42:33;;;;;;;29.83;20.20;;;13.40;99.90;;;;;;12513040;28;20102;-81
2023/04/23 07:48:34;;;;;;;25.75;17.42;;;13.80;99.90;;;;;;12501884;28;20060;-81
2023/04/23 07:54:36;;;;;;;25.15;18.25;;;14.20;99.90;;;;;;12530330;28;20045;-81
2023/04/23 08:00:38;;;;;;;27.73;17.98;;;14.40;99.90;;;;;;12496726;28;20081;-81
2023/04/23 08:06:40;;;;;;;23.27;14.68;;;14.00;99.90;;;;;;12535466;28;20056;-81
2023/04/23 08:12:43;;;;;;;24.63;15.70;;;14.30;99.90;;;;;;12527700;28;20539;-81
2023/04/23 08:18:44;;;;;;;23.42;16.80;;;14.20;99.90;;;;;;12534918;28;20067;-81
2023/04/23 08:25:05;;;;;;;25.27;14.07;;;14.50;99.90;;;;;;12501480;28;20045;-81
2023/04/23 08:31:08;;;;;;;28.98;14.55;;;14.40;99.90;;;;;;12511933;28;20041;-81
2023/04/23 08:37:26;;;;;;;20.13;12.90;;;14.70;99.90;;;;;;12512246;28;20052;-81
2023/04/23 08:43:45;;;;;;;20.60;13.88;;;15.10;99.90;;;;;;12509558;28;20502;-81
2023/04/23 08:49:52;;;;;;;11.82;8.88;;;15.40;99.90;;;;;;12497825;28;20625;-81
2023/04/23 08:55:55;;;;;;;13.05;9.15;;;15.90;99.90;;;;;;12491167;28;20061;-82
2023/04/23 09:01:59;;;;;;;13.32;9.15;;;16.20;99.90;;;;;;12497667;28;20049;-81
2023/04/23 09:08:01;;;;;;;11.00;7.40;;;16.60;99.90;;;;;;12504313;28;20072;-81
2023/04/23 09:14:03;;;;;;;11.20;8.02;;;16.80;99.90;;;;;;12502991;28;20052;-81
2023/04/23 09:20:09;;;;;;;9.77;7.43;;;17.00;99.90;;;;;;12495666;28;21324;-82
2023/04/23 09:26:20;;;;;;;9.85;7.82;;;16.90;99.90;;;;;;12504208;28;21057;-82
2023/04/23 09:32:32;;;;;;;10.05;7.63;;;16.90;99.90;;;;;;12492960;28;20099;-81
2023/04/23 09:38:34;;;;;;;10.40;7.75;;;17.30;99.90;;;;;;12497737;28;20099;-81
2023/04/23 09:44:36;;;;;;;9.52;7.25;;;17.40;99.90;;;;;;12500250;28;20060;-82
2023/04/23 09:50:39;;;;;;;10.60;7.53;;;17.50;99.90;;;;;;12504412;28;20037;-82
2023/04/23 09:56:49;;;;;;;10.15;7.07;;;17.80;99.90;;;;;;12504800;28;20391;-81
2023/04/23 10:02:51;;;;;;;10.93;7.90;;;17.90;99.90;;;;;;12502268;28;20048;-82
2023/04/23 10:08:57;;;;;;;12.75;7.80;;;17.50;99.90;;;;;;12513641;28;20045;-82
2023/04/23 10:14:59;;;;;;;13.98;8.25;;;17.40;99.90;;;;;;12511555;28;20528;-81
2023/04/23 10:21:02;;;;;;;9.85;6.85;;;17.40;99.90;;;;;;12509987;28;20072;-82
2023/04/23 10:27:05;;;;;;;9.73;6.63;;;17.80;99.90;;;;;;12521598;28;20045;-82
2023/04/23 10:33:08;;;;;;;7.82;4.90;;;18.40;99.90;;;;;;12533382;28;20045;-82
2023/04/23 10:39:33;;;;;;;6.15;3.88;;;18.30;99.90;;;;;;12507291;28;20053;-81
2023/04/23 10:45:35;;;;;;;8.73;5.15;;;18.30;99.90;;;;;;12530390;28;20052;-82
2023/04/23 10:51:38;;;;;;;6.35;4.85;;;17.70;99.90;;;;;;12517325;28;20056;-82
2023/04/23 10:58:06;;;;;;;8.18;4.60;;;17.20;99.90;;;;;;12526259;28;20061;-82
2023/04/23 11:04:26;;;;;;;6.38;4.60;;;17.00;99.90;;;;;;12535050;28;20079;-82
2023/04/23 11:10:30;;;;;;;8.55;4.82;;;16.90;99.90;;;;;;12505545;28;20124;-82
2023/04/23 11:16:33;;;;;;;7.80;4.55;;;17.10;99.90;;;;;;12515061;28;20175;-82
2023/04/23 11:22:37;;;;;;;6.85;3.90;;;17.60;99.90;;;;;;12517794;28;20049;-82
2023/04/23 11:28:42;;;;;;;6.55;3.60;;;18.10;99.90;;;;;;12522793;28;20053;-82
2023/04/23 11:34:48;;;;;;;9.00;3.38;;;17.90;99.90;;;;;;12487609;28;20056;-82
2023/04/23 11:40:52;;;;;;;5.75;3.25;;;17.60;99.90;;;;;;12519026;28;20121;-82
2023/04/23 11:46:54;;;;;;;5.22;3.20;;;17.60;99.90;;;;;;12515723;28;20060;-82
2023/04/23 11:53:09;;;;;;;12.70;4.07;;;17.50;99.90;;;;;;12535870;28;20501;-82
2023/04/23 11:59:11;;;;;;;5.13;2.70;;;16.80;99.90;;;;;;12505388;28;20082;-82
2023/04/23 12:05:12;;;;;;;5.88;2.92;;;16.10;99.90;;;;;;12506541;28;20061;-82
2023/04/23 12:11:14;;;;;;;6.00;2.47;;;15.90;99.90;;;;;;12519305;28;20049;-82
2023/04/23 12:17:16;;;;;;;5.13;1.98;;;16.10;99.90;;;;;;12518489;28;20056;-82
2023/04/23 12:23:24;;;;;;;2.13;1.08;;;16.60;99.90;;;;;;12520467;28;20052;-82
2023/04/23 12:29:30;;;;;;;3.50;1.10;;;16.50;99.90;;;;;;12502420;28;20049;-82
2023/04/23 12:35:48;;;;;;;5.05;1.58;;;17.00;99.90;;;;;;12504521;28;20058;-82
2023/04/23 12:42:12;;;;;;;3.03;1.27;;;17.30;99.90;;;;;;12508688;28;20505;-82
2023/04/23 12:48:14;;;;;;;2.20;0.90;;;17.20;99.90;;;;;;12517388;28;20339;-82
2023/04/23 12:54:16;;;;;;;6.63;1.08;;;17.60;99.90;;;;;;12530512;28;20496;-83
2023/04/23 13:00:18;;;;;;;3.50;0.80;;;17.50;99.90;;;;;;12532716;28;20076;-83
2023/04/23 13:06:20;;;;;;;2.65;1.00;;;16.90;99.90;;;;;;12516810;28;20060;-82
2023/04/23 13:12:30;;;;;;;3.05;1.30;;;17.50;99.90;;;;;;12508780;28;20045;-82
2023/04/23 13:18:44;;;;;;;0.60;0.47;;;18.50;99.90;;;;;;12507599;28;20067;-82
2023/04/23 13:24:55;;;;;;;3.50;0.60;;;18.10;99.90;;;;;;12504599;28;20049;-82
2023/04/23 13:31:05;;;;;;;1.98;0.70;;;17.70;99.90;;;;;;12511962;28;20048;-82
2023/04/23 13:37:13;;;;;;;2.67;0.80;;;17.60;99.90;;;;;;12507389;28;20091;-82
2023/04/23 13:43:21;;;;;;;1.02;0.70;;;18.00;99.90;;;;;;12507728;28;20060;-83
2023/04/23 13:49:29;;;;;;;2.90;1.10;;;18.40;99.90;;;;;;12517529;28;20558;-82
2023/04/23 13:55:37;;;;;;;1.70;0.80;;;18.80;99.90;;;;;;12525366;28;20056;-83
2023/04/23 14:01:50;;;;;;;1.15;0.68;;;18.80;99.90;;;;;;12513356;28;20046;-82
2023/04/23 14:08:05;;;;;;;2.50;0.90;;;18.10;99.90;;;;;;12514336;28;20087;-82
2023/04/23 14:14:13;;;;;;;2.28;0.75;;;18.00;99.90;;;;;;12522553;28;20064;-82
2023/04/23 14:20:21;;;;;;;3.40;1.02;;;17.80;99.90;;;;;;12513364;28;20052;-82
2023/04/23 14:26:30;;;;;;;3.45;1.10;;;17.70;99.90;;;;;;12514638;28;20083;-82
2023/04/23 14:32:50;;;;;;;2.50;1.17;;;18.00;99.90;;;;;;12514958;28;20049;-82
2023/04/23 14:39:06;;;;;;;2.05;1.02;;;17.50;99.90;;;;;;12490968;28;20061;-82
2023/04/23 14:45:17;;;;;;;2.97;1.25;;;16.90;99.90;;;;;;12515482;28;20050;-82
2023/04/23 14:51:26;;;;;;;5.93;1.35;;;16.70;99.90;;;;;;12507817;28;20094;-81
2023/04/23 14:57:34;;;;;;;3.90;1.58;;;16.50;99.90;;;;;;12516267;28;20056;-81
2023/04/23 15:03:43;;;;;;;2.30;1.33;;;16.60;99.90;;;;;;12512781;28;20049;-81
2023/04/23 15:09:52;;;;;;;4.10;1.15;;;16.70;99.90;;;;;;12517175;28;20049;-82
2023/04/23 15:16:04;;;;;;;3.15;1.10;;;17.10;99.90;;;;;;12518402;28;20102;-81
2023/04/23 15:22:12;;;;;;;3.13;1.00;;;16.90;99.90;;;;;;12505060;28;20048;-82
2023/04/23 15:28:20;;;;;;;2.05;1.10;;;17.00;99.90;;;;;;12515653;28;20046;-82
2023/04/23 15:34:28;;;;;;;2.50;0.90;;;16.80;99.90;;;;;;12487689;28;20041;-81
2023/04/23 15:40:40;;;;;;;4.38;1.10;;;17.30;99.90;;;;;;12503605;28;20056;-82
2023/04/23 15:46:49;;;;;;;2.27;1.30;;;17.30;99.90;;;;;;12495394;28;20045;-81
2023/04/23 15:52:58;;;;;;;5.75;1.40;;;17.00;99.90;;;;;;12503562;28;20042;-81
2023/04/23 15:59:06;;;;;;;3.28;1.30;;;16.70;99.90;;;;;;12532424;28;20048;-81
2023/04/23 16:05:14;;;;;;;1.70;0.90;;;16.60;99.90;;;;;;12569954;28;20057;-82
2023/04/23 16:17:57;;;;;;;1.70;0.98;;;15.70;99.90;;;;;;4465438;22;20223;-86
2023/04/23 16:24:07;;;;;;;2.13;0.95;;;14.70;99.90;;;;;;12455479;28;20533;-86
2023/04/23 16:30:15;;;;;;;2.78;1.02;;;14.60;99.90;;;;;;12446679;28;20145;-85
2023/04/23 16:36:24;;;;;;;2.00;1.05;;;15.00;99.90;;;;;;12467930;28;20061;-85
2023/04/23 16:42:33;;;;;;;4.03;1.20;;;14.90;99.90;;;;;;12462612;28;20045;-85
2023/04/23 16:48:43;;;;;;;1.95;1.20;;;14.80;99.90;;;;;;12470004;28;20503;-85
2023/04/23 16:54:51;;;;;;;2.15;1.20;;;15.00;99.90;;;;;;12479203;28;20049;-85
2023/04/23 17:00:59;;;;;;;4.38;1.52;;;14.70;99.90;;;;;;12442762;28;20121;-85
2023/04/23 17:07:08;;;;;;;4.60;1.98;;;14.40;99.90;;;;;;12479191;28;20144;-85
2023/04/23 17:13:16;;;;;;;6.07;2.60;;;14.30;99.90;;;;;;12415723;28;20413;-85
2023/04/23 17:19:24;;;;;;;5.57;2.30;;;14.30;99.90;;;;;;12456974;28;20061;-86
2023/04/23 17:25:33;;;;;;;3.17;1.50;;;14.30;99.90;;;;;;12468202;28;20544;-85
2023/04/23 17:31:42;;;;;;;3.25;1.45;;;14.30;99.90;;;;;;12476757;28;20073;-85
2023/04/23 17:37:51;;;;;;;4.95;1.63;;;14.20;99.90;;;;;;12441296;28;20050;-85
2023/04/23 17:43:59;;;;;;;2.63;1.70;;;14.20;99.90;;;;;;12472637;28;20420;-85
2023/04/23 17:50:10;;;;;;;4.10;1.50;;;14.40;99.90;;;;;;12464637;28;20084;-87
2023/04/23 17:56:20;;;;;;;2.92;1.52;;;14.40;99.90;;;;;;12463717;28;20106;-86
2023/04/23 18:02:29;;;;;;;3.55;1.45;;;14.30;99.90;;;;;;12462315;28;20048;-86
2023/04/23 18:08:39;;;;;;;3.13;1.90;;;14.40;99.90;;;;;;12470784;28;20083;-87
2023/04/23 18:14:47;;;;;;;3.20;1.83;;;14.20;99.90;;;;;;12500575;28;20408;-86
2023/04/23 18:21:01;;;;;;;4.43;2.10;;;14.10;99.90;;;;;;12503397;28;20045;-86
2023/04/23 18:27:10;;;;;;;6.07;2.50;;;13.70;99.90;;;;;;12515816;28;20092;-86
2023/04/23 18:33:39;;;;;;;4.00;2.35;;;13.60;99.90;;;;;;12494439;28;20054;-85
2023/04/23 18:39:48;;;;;;;8.00;3.35;;;13.50;99.90;;;;;;12503440;28;20138;-86
2023/04/23 18:45:57;;;;;;;6.40;3.38;;;13.40;99.90;;;;;;12514365;28;20045;-86
2023/04/23 18:52:05;;;;;;;5.20;2.65;;;13.30;99.90;;;;;;12528396;28;20052;-86
2023/04/23 18:58:07;;;;;;;5.63;2.72;;;13.20;99.90;;;;;;12514079;28;20056;-86
2023/04/23 19:04:16;;;;;;;4.43;2.45;;;13.10;99.90;;;;;;12521706;28;20107;-86
2023/04/23 19:10:25;;;;;;;4.88;2.80;;;13.10;99.90;;;;;;12517045;28;20049;-87
2023/04/23 19:16:34;;;;;;;4.38;2.28;;;13.10;99.90;;;;;;12486875;28;20052;-86
2023/04/23 19:22:52;;;;;;;5.30;2.30;;;13.10;99.90;;;;;;12418567;28;20054;-87
2023/04/23 19:29:04;;;;;;;7.40;2.17;;;13.20;99.90;;;;;;12414862;28;20116;-86
2023/04/23 19:35:13;;;;;;;5.53;2.42;;;13.30;99.90;;;;;;12429222;28;20041;-86
2023/04/23 19:41:22;;;;;;;6.25;2.33;;;13.10;99.90;;;;;;12455875;28;20054;-86
2023/04/23 19:47:31;;;;;;;4.15;1.50;;;12.90;99.90;;;;;;12456086;28;20049;-83
2023/04/23 19:53:41;;;;;;;2.88;1.30;;;12.20;99.90;;;;;;12445589;28;20499;-85
2023/04/23 19:59:50;;;;;;;3.90;1.25;;;11.70;99.90;;;;;;12456110;28;20049;-84
2023/04/23 20:05:58;;;;;;;2.08;1.40;;;11.60;99.90;;;;;;12421925;28;20041;-84
2023/04/23 20:12:07;;;;;;;2.35;1.35;;;11.50;99.90;;;;;;12452273;28;20049;-85
2023/04/23 20:18:16;;;;;;;1.85;1.20;;;11.50;99.90;;;;;;12484163;28;20057;-85
2023/04/23 20:24:33;;;;;;;4.93;1.73;;;11.50;99.90;;;;;;12522002;28;20045;-85
2023/04/23 20:30:41;;;;;;;2.88;1.42;;;11.50;99.90;;;;;;12533988;28;20052;-85
2023/04/23 20:36:50;;;;;;;4.13;1.65;;;11.30;99.90;;;;;;12505433;28;20084;-85
2023/04/23 20:42:59;;;;;;;6.50;1.60;;;11.40;99.90;;;;;;12525024;28;20100;-85
2023/04/23 20:49:08;;;;;;;2.28;1.50;;;11.30;99.90;;;;;;12540864;28;20400;-85
2023/04/23 20:55:16;;;;;;;4.22;1.50;;;11.30;99.90;;;;;;12502059;28;20528;-85
2023/04/23 21:01:25;;;;;;;2.80;1.35;;;11.20;99.90;;;;;;12514651;28;20059;-85
2023/04/23 21:07:35;;;;;;;3.17;1.88;;;11.20;99.90;;;;;;12525929;28;20125;-86
2023/04/23 21:13:45;;;;;;;3.03;1.40;;;11.20;99.90;;;;;;12520924;28;20055;-85
2023/04/23 21:19:53;;;;;;;2.45;1.20;;;11.20;99.90;;;;;;12537329;28;20049;-86
2023/04/23 21:26:14;;;;;;;3.30;1.75;;;11.20;99.90;;;;;;12500651;28;20058;-85
2023/04/23 21:32:23;;;;;;;3.47;1.38;;;11.30;99.90;;;;;;12508116;28;20823;-87
2023/04/23 21:38:32;;;;;;;4.10;1.67;;;11.20;99.90;;;;;;12470247;28;20450;-85
2023/04/23 21:44:42;;;;;;;2.38;1.30;;;11.30;99.90;;;;;;12487896;28;20121;-85
2023/04/23 21:50:52;;;;;;;2.55;1.20;;;11.20;99.90;;;;;;12463238;28;20072;-86
2023/04/23 21:57:01;;;;;;;2.15;1.20;;;11.20;99.90;;;;;;12454252;28;20049;-85
2023/04/23 22:03:10;;;;;;;1.67;0.95;;;11.20;99.90;;;;;;12459931;28;20046;-85
2023/04/23 22:09:39;;;;;;;2.03;1.10;;;11.30;99.90;;;;;;12477219;28;20692;-85
2023/04/23 22:15:48;;;;;;;2.55;1.05;;;11.50;99.90;;;;;;12487909;28;20045;-85
2023/04/23 22:21:57;;;;;;;2.78;0.98;;;11.60;99.90;;;;;;12517437;28;20065;-85
2023/04/23 22:28:06;;;;;;;1.50;0.80;;;11.60;99.90;;;;;;12514025;28;20049;-85
2023/04/23 22:34:14;;;;;;;2.33;1.08;;;11.70;99.90;;;;;;12511839;28;20048;-85
2023/04/23 22:40:23;;;;;;;2.10;1.15;;;11.60;99.90;;;;;;12511526;28;20041;-84
2023/04/23 22:46:32;;;;;;;4.20;1.45;;;11.60;99.90;;;;;;12520595;28;20103;-85
2023/04/23 22:52:40;;;;;;;1.42;0.85;;;11.50;99.90;;;;;;12497036;28;20041;-85
2023/04/23 22:58:50;;;;;;;2.85;1.63;;;11.40;99.90;;;;;;12508751;28;20057;-85
2023/04/23 23:04:59;;;;;;;1.83;1.00;;;11.30;99.90;;;;;;12515167;28;20144;-84
2023/04/23 23:11:08;;;;;;;2.13;0.88;;;11.30;99.90;;;;;;12505009;28;20053;-84
2023/04/23 23:17:16;;;;;;;2.85;0.75;;;11.30;99.90;;;;;;12484381;28;20051;-84
2023/04/23 23:23:31;;;;;;;1.38;0.70;;;11.30;99.90;;;;;;12473406;28;20297;-85
2023/04/23 23:29:41;;;;;;;1.98;0.80;;;11.40;99.90;;;;;;12455218;28;20041;-85
2023/04/23 23:35:50;;;;;;;1.20;0.65;;;11.30;99.90;;;;;;12483030;28;20087;-85
2023/04/23 23:42:01;;;;;;;1.52;0.60;;;11.20;99.90;;;;;;12449013;28;20054;-85
2023/04/23 23:48:10;;;;;;;0.60;0.60;;;11.20;99.90;;;;;;12482670;28;20187;-85
2023/04/23 23:54:18;;;;;;;1.08;0.70;;;11.20;99.90;;;;;;12443544;28;20053;-84
